Terminal Aerodrome Forecast
Issued by NWS Charleston, WV

Current Version | Previous Version | Graphics & Text | Print | Product List | Glossary On
Versions: 1 2 3 4 5 6 7 8 9 10 11 12 13 14 15 16 17 18 19 20 21 22 23 24 25 26
000
FTUS41 KRLX 261700
TAFPKB
TAF
KPKB 261740Z 2618/2718 22009G14KT P6SM SCT045
     FM262200 23007G12KT P6SM SCT050
     FM270200 21005KT P6SM VCTS BKN080CB
     FM270500 22005KT 5SM TSRA BR BKN030CB
     FM271700 18008G14KT 2SM TSRA BR BKN015CB
      AMD NOT SKED=

USA.gov is the U.S. government's official web portal to all federal, state and local government web resources and services.